^^
Lisbon, NH - Weather Station Historical Data
Daily Summary for April 30, 2021 Units:  English    Metric   Both
Daily Weekly Monthly Yearly
  High: Low: Average:
Temperature: 52.5 °F 38 °F 46.1 °F
Dew Point: 52.5 °F 37 °F 45.3 °F
Humidity: 100% 92% 97%
Wind Speed: 4.1mph 0mph 1.4mph
Wind Gust: 12mph - -
Wind- - SW
Pressure: 29.45 in 29.14 in -
Precipitation: 0.78 in    
 
 
Tabular Data for April 30, 2021
Time Temperature Dew Point Pressure Wind Wind Speed Wind Gust Humidity Rainfall Rate (Hourly) solar
10:49 52 °F 52 °F 29.15 in SSW 0.8 mph 3 mph 100% 0.01 in 296 W/m2
10:54 52.4 °F 52.4 °F 29.15 in SW 1 mph 3 mph 100% 0.01 in 290 W/m2
10:59 52.5 °F 52.5 °F 29.15 in SSW 1.1 mph 3 mph 100% 0.00 in 187 W/m2
11:04 52.2 °F 52.2 °F 29.15 in SSW 0.2 mph 3 mph 100% 0.01 in 153 W/m2
11:09 52 °F 52 °F 29.15 in SW 1.4 mph 3 mph 100% 0.01 in 97 W/m2
11:14 51.3 °F 51.3 °F 29.15 in WSW 1.6 mph 5 mph 100% 0.01 in 83 W/m2
11:19 50.8 °F 50.8 °F 29.15 in WSW 0.9 mph 3 mph 100% 0.01 in 102 W/m2
11:24 50.6 °F 50.6 °F 29.15 in WSW 2 mph 7 mph 100% 0.01 in 102 W/m2
11:29 50.4 °F 50.4 °F 29.15 in SSW 2 mph 5 mph 100% 0.01 in 70 W/m2
11:34 50.4 °F 50.4 °F 29.15 in SSW 1.5 mph 5 mph 100% 0.01 in 65 W/m2
11:39 50.2 °F 50.2 °F 29.15 in West 1.6 mph 5 mph 100% 0.01 in 81 W/m2
11:44 50.1 °F 50.1 °F 29.15 in WSW 2 mph 7 mph 100% 0.01 in 100 W/m2
11:49 50.1 °F 50.1 °F 29.15 in SW 0.8 mph 5 mph 100% 0.01 in 84 W/m2
11:54 50.1 °F 50.1 °F 29.15 in SW 1.3 mph 5 mph 100% 0.01 in 79 W/m2
11:59 50.1 °F 50.1 °F 29.15 in SSW 1.2 mph 6 mph 100% 0.01 in 95 W/m2
12:04 50.1 °F 50.1 °F 29.15 in SSW 1.2 mph 6 mph 100% 0.01 in 135 W/m2
12:09 50.1 °F 50.1 °F 29.15 in SSW 2.1 mph 6 mph 100% 0.01 in 125 W/m2
12:14 50.2 °F 50.2 °F 29.15 in SW 1.8 mph 5 mph 100% 0.01 in 116 W/m2
12:19 50.2 °F 50.2 °F 29.14 in SSW 2.4 mph 5 mph 100% 0.00 in 69 W/m2
12:24 50.2 °F 50.1 °F 29.14 in SW 2.3 mph 6 mph 99.8% 0.00 in 56 W/m2
12:29 50.2 °F 49.9 °F 29.14 in SSW 0.9 mph 3 mph 99% 0.00 in 49 W/m2
12:34 50.3 °F 50.1 °F 29.14 in SW 0.7 mph 3 mph 99% 0.01 in 46 W/m2
12:39 50.4 °F 50.1 °F 29.14 in SW 0.5 mph 3 mph 99% 0.01 in 44 W/m2
12:44 50.4 °F 50.1 °F 29.14 in SW 0.1 mph 2 mph 99% 0.01 in 77 W/m2
12:49 50.4 °F 50.3 °F 29.14 in WSW 0.5 mph 2 mph 99.5% 0.01 in 90 W/m2
12:54 50.4 °F 50.4 °F 29.14 in SSW 0.5 mph 3 mph 100% 0.02 in 77 W/m2
12:59 50.4 °F 50.4 °F 29.14 in SSW 0.9 mph 3 mph 100% 0.02 in 62 W/m2
13:04 50.3 °F 50.3 °F 29.14 in SW 2 mph 5 mph 100% 0.02 in 88 W/m2
13:09 50.2 °F 50.2 °F 29.14 in SW 1.5 mph 6 mph 100% 0.02 in 60 W/m2
13:14 50 °F 50 °F 29.14 in SW 2.3 mph 6 mph 100% 0.02 in 56 W/m2
13:19 49.9 °F 49.9 °F 29.14 in SSW 1.2 mph 5 mph 100% 0.02 in 46 W/m2
13:24 49.9 °F 49.9 °F 29.14 in SW 0.9 mph 2 mph 100% 0.02 in 49 W/m2
13:29 49.9 °F 49.9 °F 29.14 in SW 1.7 mph 7 mph 100% 0.02 in 49 W/m2
13:34 49.7 °F 49.7 °F 29.14 in SSW 1.8 mph 7 mph 100% 0.02 in 69 W/m2
13:39 49.6 °F 49.6 °F 29.14 in SSW 2.5 mph 5 mph 100% 0.02 in 111 W/m2
13:44 49.6 °F 49.4 °F 29.14 in SW 2.1 mph 6 mph 99.1% 0.02 in 158 W/m2
13:49 49.7 °F 49.5 °F 29.14 in SSW 2.4 mph 6 mph 99% 0.01 in 134 W/m2
13:54 49.8 °F 49.4 °F 29.14 in SSW 1.6 mph 7 mph 98.6% 0.01 in 146 W/m2
13:59 49.9 °F 49.4 °F 29.14 in SW 1.5 mph 7 mph 98% 0.01 in 109 W/m2
14:04 50.1 °F 49.4 °F 29.14 in WSW 1.1 mph 7 mph 97.7% 0.01 in 86 W/m2
14:09 49.8 °F 49 °F 29.14 in WSW 1.8 mph 6 mph 96.9% 0.00 in 95 W/m2
14:14 49.7 °F 48.7 °F 29.14 in SW 2.5 mph 7 mph 96.3% 0.00 in 91 W/m2
14:19 49.5 °F 48.3 °F 29.14 in WSW 2.5 mph 7 mph 95.6% 0.00 in 95 W/m2
14:24 49.4 °F 47.8 °F 29.14 in SW 2.8 mph 7 mph 94.3% 0.00 in 72 W/m2
14:29 49.2 °F 47.5 °F 29.14 in SW 3 mph 8 mph 93.8% 0.00 in 77 W/m2
14:34 49.2 °F 47.2 °F 29.14 in SW 2.8 mph 8 mph 93% 0.00 in 106 W/m2
14:39 49.1 °F 46.9 °F 29.14 in SW 2.3 mph 8 mph 92.2% 0.00 in 134 W/m2
14:41 49.2 °F 47 °F 29.14 in SW 2 mph 7 mph 92% 0.00 in 127 W/m2
14:49 49.1 °F 47 °F 29.14 in SW 1.4 mph 7 mph 92.5% 0.00 in 86 W/m2
14:54 49.2 °F 47.2 °F 29.14 in SW 1.8 mph 8 mph 92.8% 0.00 in 91 W/m2
14:59 49 °F 46.8 °F 29.14 in SW 2.8 mph 8 mph 92.1% 0.01 in 86 W/m2
15:04 48.8 °F 46.6 °F 29.14 in SW 4.1 mph 8 mph 92% 0.01 in 86 W/m2
15:09 48.9 °F 46.7 °F 29.14 in SW 1.2 mph 8 mph 92.2% 0.01 in 86 W/m2
15:14 48.7 °F 46.5 °F 29.14 in SW 1.6 mph 7 mph 92% 0.01 in 74 W/m2
15:19 48.7 °F 46.8 °F 29.14 in SW 1.2 mph 5 mph 93% 0.01 in 77 W/m2
15:24 48.7 °F 46.8 °F 29.14 in SW 2 mph 6 mph 93.3% 0.01 in 86 W/m2
15:29 48.4 °F 46.7 °F 29.14 in SSW 2.4 mph 6 mph 93.8% 0.01 in 95 W/m2
15:34 48.4 °F 46.8 °F 29.14 in SSW 1 mph 5 mph 94% 0.02 in 111 W/m2
15:39 48.5 °F 47.1 °F 29.14 in WSW 0.9 mph 3 mph 94.9% 0.02 in 93 W/m2
15:44 48.5 °F 47.2 °F 29.14 in WSW 1.8 mph 6 mph 95% 0.02 in 106 W/m2
15:49 48.4 °F 47 °F 29.14 in SW 1.3 mph 3 mph 95% 0.02 in 106 W/m2
15:54 48.3 °F 47 °F 29.14 in SSW 3.1 mph 7 mph 95% 0.03 in 93 W/m2
15:59 48.3 °F 46.9 °F 29.15 in SW 2.5 mph 7 mph 95% 0.03 in 76 W/m2
16:04 48.3 °F 46.9 °F 29.15 in SW 1.6 mph 5 mph 95% 0.03 in 55 W/m2
16:09 48.3 °F 47 °F 29.15 in SSW 3 mph 7 mph 95.5% 0.02 in 84 W/m2
16:14 48.1 °F 47.1 °F 29.15 in SW 2.6 mph 8 mph 96% 0.02 in 76 W/m2
16:19 48.1 °F 47 °F 29.15 in SSW 2.6 mph 8 mph 96% 0.03 in 62 W/m2
16:24 48 °F 46.9 °F 29.15 in SSW 2.5 mph 7 mph 96% 0.03 in 55 W/m2
16:29 48 °F 46.9 °F 29.16 in SW 1.9 mph 7 mph 96% 0.03 in 58 W/m2
16:34 47.9 °F 46.9 °F 29.16 in SW 2 mph 5 mph 96.2% 0.03 in 69 W/m2
16:39 47.9 °F 47 °F 29.16 in SSW 2.3 mph 6 mph 96.7% 0.03 in 53 W/m2
16:44 47.8 °F 46.8 °F 29.17 in SW 1.8 mph 6 mph 96.1% 0.03 in 55 W/m2
16:49 47.7 °F 46.6 °F 29.17 in SSW 1.1 mph 3 mph 96% 0.03 in 55 W/m2
16:54 47.7 °F 46.6 °F 29.17 in SW 1.5 mph 5 mph 96% 0.03 in 60 W/m2
16:59 47.7 °F 46.8 °F 29.18 in SW 2.1 mph 6 mph 96.6% 0.03 in 62 W/m2
17:04 47.6 °F 46.8 °F 29.18 in SW 1.5 mph 6 mph 97% 0.03 in 67 W/m2
17:09 47.6 °F 46.8 °F 29.18 in SW 1.5 mph 6 mph 97% 0.03 in 62 W/m2
17:14 47.6 °F 46.8 °F 29.18 in SW 2.2 mph 5 mph 97% 0.03 in 62 W/m2
17:19 47.6 °F 46.9 °F 29.18 in SW 2.2 mph 6 mph 97.5% 0.04 in 58 W/m2
17:24 47.6 °F 47.1 °F 29.18 in SW 0.7 mph 5 mph 98% 0.04 in 51 W/m2
17:29 47.6 °F 47.1 °F 29.19 in WSW 0.7 mph 3 mph 98% 0.03 in 53 W/m2
17:34 47.6 °F 47 °F 29.19 in WNW 1.2 mph 3 mph 97.7% 0.03 in 56 W/m2
17:39 47.4 °F 46.7 °F 29.19 in West 1.7 mph 4 mph 97.3% 0.04 in 58 W/m2
17:44 47.3 °F 46.5 °F 29.20 in SW 3.3 mph 8 mph 97% 0.05 in 48 W/m2
17:49 47.1 °F 46.3 °F 29.20 in West 2.1 mph 7 mph 97% 0.05 in 48 W/m2
17:54 47.1 °F 46.3 °F 29.20 in West 1.9 mph 6 mph 97% 0.05 in 44 W/m2
17:59 47 °F 46.2 °F 29.22 in WSW 1.4 mph 6 mph 97% 0.05 in 37 W/m2
18:04 46.9 °F 46.1 °F 29.22 in West 2.5 mph 8 mph 97% 0.05 in 33 W/m2
18:09 46.8 °F 46 °F 29.22 in SW 2 mph 6 mph 97% 0.06 in 33 W/m2
18:14 46.6 °F 45.7 °F 29.23 in West 2.4 mph 9 mph 96.6% 0.06 in 32 W/m2
18:19 46.4 °F 45.3 °F 29.23 in SW 2.4 mph 7 mph 96% 0.05 in 26 W/m2
18:24 46.2 °F 45.1 °F 29.23 in West 1.8 mph 6 mph 96% 0.05 in 25 W/m2
18:29 46.1 °F 45 °F 29.25 in WSW 1.6 mph 5 mph 96% 0.05 in 21 W/m2
18:34 45.9 °F 44.8 °F 29.25 in West 0.7 mph 5 mph 96% 0.05 in 21 W/m2
18:39 45.7 °F 44.8 °F 29.25 in WNW 1.7 mph 5 mph 96.3% 0.06 in 21 W/m2
18:44 45.5 °F 44.5 °F 29.26 in WNW 1.5 mph 6 mph 96% 0.06 in 18 W/m2
18:49 45.4 °F 44.4 °F 29.26 in WSW 1.3 mph 3 mph 96.3% 0.06 in 19 W/m2
18:54 45.2 °F 44.4 °F 29.26 in SW 0.8 mph 3 mph 96.9% 0.06 in 18 W/m2
18:59 45.2 °F 44.4 °F 29.27 in SW 0.9 mph 3 mph 97% 0.06 in 16 W/m2
19:04 45 °F 44.2 °F 29.27 in West 1.6 mph 8 mph 97% 0.06 in 16 W/m2
19:09 45 °F 44.2 °F 29.27 in SE 0.5 mph 2 mph 97% 0.06 in 12 W/m2
19:14 45 °F 44.2 °F 29.29 in ESE 0.6 mph 2 mph 97% 0.06 in 12 W/m2
19:19 44.9 °F 44.1 °F 29.29 in NE 0.1 mph 2 mph 97% 0.06 in 12 W/m2
19:24 44.9 °F 44.1 °F 29.29 in East 0.6 mph 2 mph 97% 0.06 in 12 W/m2
19:29 44.7 °F 43.9 °F 29.30 in West 1.1 mph 3 mph 97% 0.07 in 11 W/m2
19:34 44.7 °F 43.9 °F 29.30 in NNE 0.4 mph 3 mph 97% 0.07 in 9 W/m2
19:39 44.7 °F 43.7 °F 29.30 in East 0.4 mph 2 mph 96.2% 0.06 in 7 W/m2
19:44 44.7 °F 43.7 °F 29.31 in NW 0.9 mph 3 mph 96.2% 0.06 in 5 W/m2
19:49 44.7 °F 43.9 °F 29.31 in ESE 1.3 mph 3 mph 97% 0.06 in 0 W/m2
19:54 44.7 °F 43.9 °F 29.31 in South 0.3 mph 2 mph 97% 0.06 in 0 W/m2
19:59 44.7 °F 43.9 °F 29.32 in SE 0.4 mph 2 mph 97% 0.05 in 0 W/m2
20:04 44.7 °F 43.9 °F 29.32 in ESE 0.3 mph 2 mph 97% 0.05 in 0 W/m2
20:09 44.7 °F 43.9 °F 29.32 in ESE 0.3 mph 2 mph 97% 0.04 in 0 W/m2
20:14 44.7 °F 43.9 °F 29.32 in Calm   1 mph 97% 0.04 in 0 W/m2
20:19 44.7 °F 43.9 °F 29.32 in Calm   1 mph 97% 0.04 in 0 W/m2
20:24 44.7 °F 43.9 °F 29.32 in Calm     97% 0.04 in 0 W/m2
20:29 44.7 °F 44.1 °F 29.33 in Calm     97.8% 0.04 in 0 W/m2
20:34 44.7 °F 44.2 °F 29.33 in Calm     98% 0.04 in 0 W/m2
20:39 44.7 °F 44.4 °F 29.33 in ESE 0.8 mph 3 mph 98.7% 0.03 in 0 W/m2
20:44 44.7 °F 44.4 °F 29.34 in East 0.2 mph 3 mph 99% 0.03 in 0 W/m2
20:49 44.7 °F 44.4 °F 29.34 in North 0.6 mph 2 mph 99% 0.04 in 0 W/m2
20:54 44.5 °F 44.2 °F 29.34 in West 2.4 mph 8 mph 98.8% 0.04 in 0 W/m2
20:59 43.5 °F 42.9 °F 29.36 in West 3.6 mph 12 mph 97.8% 0.04 in 0 W/m2
21:04 42.5 °F 41.7 °F 29.36 in WSW 2.6 mph 12 mph 97% 0.05 in 0 W/m2
21:09 41.8 °F 41.1 °F 29.36 in WNW 3.7 mph 11 mph 97% 0.06 in 0 W/m2
21:14 41.3 °F 40.3 °F 29.37 in NW 3.5 mph 11 mph 96% 0.07 in 0 W/m2
21:19 40.9 °F 39.8 °F 29.37 in West 3.1 mph 9 mph 96% 0.08 in 0 W/m2
21:24 40.7 °F 39.6 °F 29.37 in WNW 1.8 mph 7 mph 96% 0.08 in 0 W/m2
21:29 40.5 °F 39.4 °F 29.38 in SE 1.2 mph 6 mph 95.9% 0.08 in 0 W/m2
21:34 40.3 °F 39 °F 29.38 in SW 0.6 mph 6 mph 95% 0.08 in 0 W/m2
21:39 40.1 °F 38.8 °F 29.38 in SW 2 mph 8 mph 95% 0.07 in 0 W/m2
21:44 40.1 °F 38.8 °F 29.39 in SW 0.9 mph 4 mph 95% 0.07 in 0 W/m2
21:49 40.1 °F 38.7 °F 29.39 in SW 1 mph 3 mph 95% 0.07 in 0 W/m2
21:54 40 °F 38.9 °F 29.39 in SSW 0.6 mph 3 mph 95.9% 0.07 in 0 W/m2
21:59 40 °F 39 °F 29.40 in South 0.2 mph 1 mph 96% 0.06 in 0 W/m2
22:04 39.9 °F 38.8 °F 29.40 in SW 0.5 mph 2 mph 96% 0.06 in 0 W/m2
22:05 39.8 °F 38.8 °F 29.40 in South 1 mph 1 mph 96% 0.05 in 0 W/m2
22:10 39.8 °F 38.8 °F 29.40 in Calm   2 mph 96% 0.05 in 0 W/m2
22:24 39.5 °F 38.6 °F 29.41 in WNW 2.2 mph 7 mph 96.6% 0.03 in 0 W/m2
22:29 39.3 °F 38.3 °F 29.42 in West 0.6 mph 7 mph 96% 0.01 in 0 W/m2
22:34 39.1 °F 38.1 °F 29.42 in WSW 0.8 mph 2 mph 96% 0.01 in 0 W/m2
22:39 39.1 °F 38 °F 29.42 in NW 0.2 mph 1 mph 96% 0.00 in 0 W/m2
22:44 38.9 °F 37.9 °F 29.42 in WNW 0.7 mph 2 mph 96% 0.00 in 0 W/m2
22:49 38.8 °F 37.8 °F 29.42 in Calm   2 mph 96% 0.00 in 0 W/m2
22:54 38.7 °F 37.7 °F 29.42 in South 0.4 mph 2 mph 96% 0.00 in 0 W/m2
22:59 38.7 °F 37.8 °F 29.43 in WNW 0.3 mph 2 mph 96.7% 0.00 in 0 W/m2
23:04 38.7 °F 37.9 °F 29.43 in WSW 0.4 mph 2 mph 97% 0.00 in 0 W/m2
23:09 38.6 °F 37.8 °F 29.43 in South 1 mph 6 mph 97% 0.00 in 0 W/m2
23:14 38.5 °F 37.7 °F 29.44 in ESE 1.3 mph 5 mph 96.8% 0.00 in 0 W/m2
23:19 38.4 °F 37.3 °F 29.44 in West 0.6 mph 5 mph 96% 0.00 in 0 W/m2
23:24 38.3 °F 37.2 °F 29.44 in Calm   1 mph 96% 0.00 in 0 W/m2
23:29 38.1 °F 37.1 °F 29.44 in West 0.3 mph 2 mph 96% 0.00 in 0 W/m2
23:34 38.1 °F 37 °F 29.44 in West 0.7 mph 2 mph 96% 0.00 in 0 W/m2
23:39 38 °F 37.1 °F 29.44 in WNW 0.7 mph 2 mph 96.5% 0.00 in 0 W/m2
23:44 38 °F 37 °F 29.45 in SW 0.5 mph 2 mph 96.2% 0.00 in 0 W/m2
23:49 38 °F 37.3 °F 29.45 in West 0.6 mph 2 mph 97% 0.00 in 0 W/m2
23:54 38.1 °F 37.3 °F 29.45 in SW 1 mph 4 mph 97% 0.00 in 0 W/m2
23:59 38 °F 37.1 °F 29.45 in NW 0.9 mph 5 mph 96.3% 0.00 in 0 W/m2
Lisbon, New Hampshire, USA
Compliments of Weather Underground - 3.25 mb